sensor_id;sensor_type;location;lat;lon;timestamp;pressure;altitude;pressure_sealevel;temperature;humidity
48402;BME280;34201;52.438;16.744;2022-08-14T00:01:11;100523.28;;;19.92;100.00
48402;BME280;34201;52.438;16.744;2022-08-14T00:03:36;100523.19;;;19.93;100.00
48402;BME280;34201;52.438;16.744;2022-08-14T00:06:03;100529.47;;;19.91;100.00
48402;BME280;34201;52.438;16.744;2022-08-14T00:08:29;100523.69;;;19.86;100.00
48402;BME280;34201;52.438;16.744;2022-08-14T00:10:55;100517.69;;;19.83;100.00
48402;BME280;34201;52.438;16.744;2022-08-14T00:13:23;100512.44;;;19.83;100.00
48402;BME280;34201;52.438;16.744;2022-08-14T00:15:52;100518.81;;;19.79;100.00
48402;BME280;34201;52.438;16.744;2022-08-14T00:18:22;100523.97;;;19.81;100.00
48402;BME280;34201;52.438;16.744;2022-08-14T00:20:49;100507.38;;;19.80;100.00
48402;BME280;34201;52.438;16.744;2022-08-14T00:23:15;100501.13;;;19.83;100.00
48402;BME280;34201;52.438;16.744;2022-08-14T00:25:41;100491.66;;;19.80;100.00
48402;BME280;34201;52.438;16.744;2022-08-14T00:28:09;100483.84;;;19.79;100.00
48402;BME280;34201;52.438;16.744;2022-08-14T00:30:35;100480.66;;;19.74;100.00
48402;BME280;34201;52.438;16.744;2022-08-14T00:33:00;100490.53;;;19.70;100.00
48402;BME280;34201;52.438;16.744;2022-08-14T00:35:26;100489.84;;;19.66;100.00
48402;BME280;34201;52.438;16.744;2022-08-14T00:37:51;100496.53;;;19.58;100.00
48402;BME280;34201;52.438;16.744;2022-08-14T00:40:18;100503.47;;;19.59;100.00
48402;BME280;34201;52.438;16.744;2022-08-14T00:42:45;100512.56;;;19.53;100.00
48402;BME280;34201;52.438;16.744;2022-08-14T00:45:12;100505.72;;;19.51;100.00
48402;BME280;34201;52.438;16.744;2022-08-14T00:47:39;100507.03;;;19.43;100.00
48402;BME280;34201;52.438;16.744;2022-08-14T00:50:07;100509.81;;;19.40;100.00
48402;BME280;34201;52.438;16.744;2022-08-14T00:52:33;100510.19;;;19.34;100.00
48402;BME280;34201;52.438;16.744;2022-08-14T00:54:59;100508.69;;;19.30;100.00
48402;BME280;34201;52.438;16.744;2022-08-14T00:57:30;100520.59;;;19.21;100.00
48402;BME280;34201;52.438;16.744;2022-08-14T00:59:56;100519.63;;;19.08;100.00
48402;BME280;34201;52.438;16.744;2022-08-14T01:02:22;100515.41;;;19.05;100.00
48402;BME280;34201;52.438;16.744;2022-08-14T01:04:53;100518.03;;;19.05;100.00
48402;BME280;34201;52.438;16.744;2022-08-14T01:07:20;100513.91;;;19.01;100.00
48402;BME280;34201;52.438;16.744;2022-08-14T01:09:57;100520.00;;;19.02;100.00
48402;BME280;34201;52.438;16.744;2022-08-14T01:12:25;100521.75;;;19.01;100.00
48402;BME280;34201;52.438;16.744;2022-08-14T01:14:51;100520.91;;;19.01;100.00
48402;BME280;34201;52.438;16.744;2022-08-14T01:17:20;100527.84;;;19.02;100.00
48402;BME280;34201;52.438;16.744;2022-08-14T01:19:46;100531.69;;;18.96;100.00
48402;BME280;34201;52.438;16.744;2022-08-14T01:22:30;100523.63;;;18.99;100.00
48402;BME280;34201;52.438;16.744;2022-08-14T01:24:55;100516.50;;;19.01;100.00
48402;BME280;34201;52.438;16.744;2022-08-14T01:27:22;100502.41;;;19.04;100.00
48402;BME280;34201;52.438;16.744;2022-08-14T01:29:51;100503.31;;;19.03;100.00
48402;BME280;34201;52.438;16.744;2022-08-14T01:32:17;100514.66;;;19.03;100.00
48402;BME280;34201;52.438;16.744;2022-08-14T01:34:46;100517.47;;;19.00;100.00
48402;BME280;34201;52.438;16.744;2022-08-14T01:37:12;100514.28;;;18.95;100.00
48402;BME280;34201;52.438;16.744;2022-08-14T01:39:37;100504.06;;;18.90;100.00
48402;BME280;34201;52.438;16.744;2022-08-14T01:42:03;100505.97;;;18.87;100.00
48402;BME280;34201;52.438;16.744;2022-08-14T01:44:29;100507.97;;;18.83;100.00
48402;BME280;34201;52.438;16.744;2022-08-14T01:46:57;100507.00;;;18.84;100.00
48402;BME280;34201;52.438;16.744;2022-08-14T01:49:23;100498.41;;;18.82;100.00
48402;BME280;34201;52.438;16.744;2022-08-14T01:51:49;100491.94;;;18.73;100.00
48402;BME280;34201;52.438;16.744;2022-08-14T01:54:18;100501.81;;;18.68;100.00
48402;BME280;34201;52.438;16.744;2022-08-14T01:56:47;100510.28;;;18.57;100.00
48402;BME280;34201;52.438;16.744;2022-08-14T02:01:40;100546.72;;;18.46;100.00
48402;BME280;34201;52.438;16.744;2022-08-14T02:04:08;100554.41;;;18.49;100.00
48402;BME280;34201;52.438;16.744;2022-08-14T02:06:35;100549.25;;;18.47;100.00
48402;BME280;34201;52.438;16.744;2022-08-14T02:09:06;100545.13;;;18.43;100.00
48402;BME280;34201;52.438;16.744;2022-08-14T02:11:32;100553.41;;;18.36;100.00
48402;BME280;34201;52.438;16.744;2022-08-14T02:14:02;100561.50;;;18.31;100.00
48402;BME280;34201;52.438;16.744;2022-08-14T02:16:31;100572.84;;;18.32;100.00
48402;BME280;34201;52.438;16.744;2022-08-14T02:19:00;100586.16;;;18.27;100.00
48402;BME280;34201;52.438;16.744;2022-08-14T02:21:28;100572.16;;;18.28;100.00
48402;BME280;34201;52.438;16.744;2022-08-14T02:23:56;100572.06;;;18.29;100.00
48402;BME280;34201;52.438;16.744;2022-08-14T02:26:27;100571.53;;;18.23;100.00
48402;BME280;34201;52.438;16.744;2022-08-14T02:28:57;100553.91;;;18.26;100.00
48402;BME280;34201;52.438;16.744;2022-08-14T02:31:25;100538.56;;;18.20;100.00
48402;BME280;34201;52.438;16.744;2022-08-14T02:33:54;100555.50;;;18.13;100.00
48402;BME280;34201;52.438;16.744;2022-08-14T02:36:20;100561.00;;;18.08;100.00
48402;BME280;34201;52.438;16.744;2022-08-14T02:38:46;100571.91;;;18.01;100.00
48402;BME280;34201;52.438;16.744;2022-08-14T02:41:12;100588.69;;;17.97;100.00
48402;BME280;34201;52.438;16.744;2022-08-14T02:43:39;100580.56;;;18.01;100.00
48402;BME280;34201;52.438;16.744;2022-08-14T02:46:06;100579.97;;;17.96;100.00
48402;BME280;34201;52.438;16.744;2022-08-14T02:48:34;100575.22;;;17.87;100.00
48402;BME280;34201;52.438;16.744;2022-08-14T02:51:03;100581.72;;;17.79;100.00
48402;BME280;34201;52.438;16.744;2022-08-14T02:53:29;100587.16;;;17.75;100.00
48402;BME280;34201;52.438;16.744;2022-08-14T02:55:56;100583.09;;;17.69;100.00
48402;BME280;34201;52.438;16.744;2022-08-14T02:58:22;100594.19;;;17.57;100.00
48402;BME280;34201;52.438;16.744;2022-08-14T03:00:48;100610.81;;;17.56;100.00
48402;BME280;34201;52.438;16.744;2022-08-14T03:03:14;100621.19;;;17.57;100.00
48402;BME280;34201;52.438;16.744;2022-08-14T03:05:41;100616.88;;;17.56;100.00
48402;BME280;34201;52.438;16.744;2022-08-14T03:08:10;100617.06;;;17.53;100.00
48402;BME280;34201;52.438;16.744;2022-08-14T03:10:36;100611.81;;;17.53;100.00
48402;BME280;34201;52.438;16.744;2022-08-14T03:13:02;100612.91;;;17.49;100.00
48402;BME280;34201;52.438;16.744;2022-08-14T03:15:31;100626.81;;;17.50;100.00
48402;BME280;34201;52.438;16.744;2022-08-14T03:17:58;100619.03;;;17.48;100.00
48402;BME280;34201;52.438;16.744;2022-08-14T03:20:28;100608.25;;;17.54;100.00
48402;BME280;34201;52.438;16.744;2022-08-14T03:22:55;100590.38;;;17.47;100.00
48402;BME280;34201;52.438;16.744;2022-08-14T03:25:23;100584.44;;;17.43;100.00
48402;BME280;34201;52.438;16.744;2022-08-14T03:27:49;100595.41;;;17.34;100.00
48402;BME280;34201;52.438;16.744;2022-08-14T03:30:14;100609.53;;;17.30;100.00
48402;BME280;34201;52.438;16.744;2022-08-14T03:32:40;100624.13;;;17.34;100.00
48402;BME280;34201;52.438;16.744;2022-08-14T03:35:05;100635.25;;;17.37;100.00
48402;BME280;34201;52.438;16.744;2022-08-14T03:37:32;100635.25;;;17.37;100.00
48402;BME280;34201;52.438;16.744;2022-08-14T03:39:57;100614.53;;;17.34;100.00
48402;BME280;34201;52.438;16.744;2022-08-14T03:42:22;100618.84;;;17.35;100.00
48402;BME280;34201;52.438;16.744;2022-08-14T03:44:49;100606.69;;;17.34;100.00
48402;BME280;34201;52.438;16.744;2022-08-14T03:47:14;100611.28;;;17.29;100.00
48402;BME280;34201;52.438;16.744;2022-08-14T03:49:40;100605.31;;;17.27;100.00
48402;BME280;34201;52.438;16.744;2022-08-14T03:52:07;100604.69;;;17.22;100.00
48402;BME280;34201;52.438;16.744;2022-08-14T03:54:32;100603.13;;;17.18;100.00
48402;BME280;34201;52.438;16.744;2022-08-14T03:57:00;100611.28;;;17.12;100.00
48402;BME280;34201;52.438;16.744;2022-08-14T03:59:26;100626.81;;;17.15;100.00
48402;BME280;34201;52.438;16.744;2022-08-14T04:01:51;100633.03;;;17.12;100.00
48402;BME280;34201;52.438;16.744;2022-08-14T04:04:17;100635.56;;;17.14;100.00
48402;BME280;34201;52.438;16.744;2022-08-14T04:06:43;100632.94;;;17.14;100.00
48402;BME280;34201;52.438;16.744;2022-08-14T04:09:08;100636.59;;;17.11;100.00
48402;BME280;34201;52.438;16.744;2022-08-14T04:11:35;100640.13;;;17.10;100.00
48402;BME280;34201;52.438;16.744;2022-08-14T04:14:00;100636.59;;;17.11;100.00
48402;BME280;34201;52.438;16.744;2022-08-14T04:16:26;100646.25;;;17.09;100.00
48402;BME280;34201;52.438;16.744;2022-08-14T04:18:54;100643.63;;;17.09;100.00
48402;BME280;34201;52.438;16.744;2022-08-14T04:21:22;100672.59;;;17.04;100.00
48402;BME280;34201;52.438;16.744;2022-08-14T04:23:49;100675.97;;;17.06;100.00
48402;BME280;34201;52.438;16.744;2022-08-14T04:26:15;100673.22;;;17.09;100.00
48402;BME280;34201;52.438;16.744;2022-08-14T04:28:47;100669.44;;;17.15;100.00
48402;BME280;34201;52.438;16.744;2022-08-14T04:31:14;100658.00;;;17.18;100.00
48402;BME280;34201;52.438;16.744;2022-08-14T04:33:40;100645.72;;;17.20;100.00
48402;BME280;34201;52.438;16.744;2022-08-14T04:36:06;100642.13;;;17.22;100.00
48402;BME280;34201;52.438;16.744;2022-08-14T04:38:31;100630.72;;;17.23;100.00
48402;BME280;34201;52.438;16.744;2022-08-14T04:41:15;100624.50;;;17.26;100.00
48402;BME280;34201;52.438;16.744;2022-08-14T04:43:59;100624.75;;;17.21;100.00
48402;BME280;34201;52.438;16.744;2022-08-14T04:46:25;100619.06;;;17.31;100.00
48402;BME280;34201;52.438;16.744;2022-08-14T04:48:52;100599.91;;;17.30;100.00
48402;BME280;34201;52.438;16.744;2022-08-14T04:51:21;100601.69;;;17.30;100.00
48402;BME280;34201;52.438;16.744;2022-08-14T04:53:50;100590.31;;;17.31;100.00
48402;BME280;34201;52.438;16.744;2022-08-14T04:56:17;100586.09;;;17.28;100.00
48402;BME280;34201;52.438;16.744;2022-08-14T04:58:47;100607.06;;;17.44;100.00
48402;BME280;34201;52.438;16.744;2022-08-14T05:01:13;100600.50;;;17.53;100.00
48402;BME280;34201;52.438;16.744;2022-08-14T05:03:39;100585.88;;;17.66;100.00
48402;BME280;34201;52.438;16.744;2022-08-14T05:06:10;100568.69;;;17.78;100.00
48402;BME280;34201;52.438;16.744;2022-08-14T05:08:35;100567.16;;;17.74;100.00
48402;BME280;34201;52.438;16.744;2022-08-14T05:11:03;100557.22;;;17.81;100.00
48402;BME280;34201;52.438;16.744;2022-08-14T05:13:31;100569.13;;;17.86;100.00
48402;BME280;34201;52.438;16.744;2022-08-14T05:15:58;100545.13;;;17.95;100.00
48402;BME280;34201;52.438;16.744;2022-08-14T05:18:30;100534.19;;;18.05;100.00
48402;BME280;34201;52.438;16.744;2022-08-14T05:21:00;100519.72;;;18.13;100.00
48402;BME280;34201;52.438;16.744;2022-08-14T05:23:29;100520.81;;;18.25;100.00
48402;BME280;34201;52.438;16.744;2022-08-14T05:25:56;100512.88;;;18.27;100.00
48402;BME280;34201;52.438;16.744;2022-08-14T05:28:34;100503.91;;;18.31;100.00
48402;BME280;34201;52.438;16.744;2022-08-14T05:31:04;100483.75;;;18.33;100.00
48402;BME280;34201;52.438;16.744;2022-08-14T05:33:34;100480.13;;;18.36;100.00
48402;BME280;34201;52.438;16.744;2022-08-14T05:36:02;100462.19;;;18.44;100.00
48402;BME280;34201;52.438;16.744;2022-08-14T05:38:36;100452.38;;;18.47;100.00
48402;BME280;34201;52.438;16.744;2022-08-14T05:41:07;100450.59;;;18.48;100.00
48402;BME280;34201;52.438;16.744;2022-08-14T05:43:33;100447.00;;;18.65;100.00
48402;BME280;34201;52.438;16.744;2022-08-14T05:45:58;100432.81;;;18.69;100.00
48402;BME280;34201;52.438;16.744;2022-08-14T05:48:25;100416.72;;;18.75;100.00
48402;BME280;34201;52.438;16.744;2022-08-14T05:50:52;100410.56;;;18.76;100.00
48402;BME280;34201;52.438;16.744;2022-08-14T05:53:22;100407.97;;;18.91;100.00
48402;BME280;34201;52.438;16.744;2022-08-14T05:55:48;100394.22;;;19.02;100.00
48402;BME280;34201;52.438;16.744;2022-08-14T05:58:13;100368.41;;;19.10;100.00
48402;BME280;34201;52.438;16.744;2022-08-14T06:00:43;100367.06;;;19.17;100.00
48402;BME280;34201;52.438;16.744;2022-08-14T06:03:11;100363.31;;;19.21;100.00
48402;BME280;34201;52.438;16.744;2022-08-14T06:05:39;100366.75;;;19.36;100.00
48402;BME280;34201;52.438;16.744;2022-08-14T06:10:44;100352.75;;;19.50;100.00
48402;BME280;34201;52.438;16.744;2022-08-14T06:13:10;100344.66;;;19.67;100.00
48402;BME280;34201;52.438;16.744;2022-08-14T06:15:35;100342.78;;;19.70;100.00
48402;BME280;34201;52.438;16.744;2022-08-14T06:18:01;100347.44;;;19.79;100.00
48402;BME280;34201;52.438;16.744;2022-08-14T06:20:27;100341.31;;;19.93;100.00
48402;BME280;34201;52.438;16.744;2022-08-14T06:22:52;100338.59;;;19.94;100.00
48402;BME280;34201;52.438;16.744;2022-08-14T06:25:17;100338.09;;;20.02;100.00
48402;BME280;34201;52.438;16.744;2022-08-14T06:27:45;100324.00;;;20.03;100.00
48402;BME280;34201;52.438;16.744;2022-08-14T06:30:16;100325.28;;;20.10;100.00
48402;BME280;34201;52.438;16.744;2022-08-14T06:32:42;100326.53;;;20.05;100.00
48402;BME280;34201;52.438;16.744;2022-08-14T06:35:09;100325.91;;;20.14;100.00
48402;BME280;34201;52.438;16.744;2022-08-14T06:37:47;100308.81;;;20.21;100.00
48402;BME280;34201;52.438;16.744;2022-08-14T06:40:22;100304.09;;;20.39;99.94
48402;BME280;34201;52.438;16.744;2022-08-14T06:42:48;100302.50;;;20.49;98.95
48402;BME280;34201;52.438;16.744;2022-08-14T06:45:14;100295.06;;;20.56;98.06
48402;BME280;34201;52.438;16.744;2022-08-14T06:47:41;100282.69;;;20.71;96.93
48402;BME280;34201;52.438;16.744;2022-08-14T06:50:10;100261.31;;;20.76;95.41
48402;BME280;34201;52.438;16.744;2022-08-14T06:52:36;100265.94;;;20.85;95.03
48402;BME280;34201;52.438;16.744;2022-08-14T06:55:04;100269.81;;;20.92;95.49
48402;BME280;34201;52.438;16.744;2022-08-14T06:57:35;100262.63;;;21.07;94.36
48402;BME280;34201;52.438;16.744;2022-08-14T07:00:05;100258.81;;;21.11;94.23
48402;BME280;34201;52.438;16.744;2022-08-14T07:02:32;100245.94;;;21.19;94.62
48402;BME280;34201;52.438;16.744;2022-08-14T07:05:16;100242.13;;;21.24;94.60
48402;BME280;34201;52.438;16.744;2022-08-14T07:08:00;100245.03;;;21.32;94.45
48402;BME280;34201;52.438;16.744;2022-08-14T07:10:25;100238.50;;;21.37;94.22
48402;BME280;34201;52.438;16.744;2022-08-14T07:12:51;100224.63;;;21.60;92.66
48402;BME280;34201;52.438;16.744;2022-08-14T07:15:16;100217.75;;;21.70;91.92
48402;BME280;34201;52.438;16.744;2022-08-14T07:17:49;100224.59;;;21.84;91.86
48402;BME280;34201;52.438;16.744;2022-08-14T07:20:15;100202.69;;;21.83;90.64
48402;BME280;34201;52.438;16.744;2022-08-14T07:22:42;100204.94;;;21.88;89.69
48402;BME280;34201;52.438;16.744;2022-08-14T07:25:09;100190.13;;;21.76;89.12
48402;BME280;34201;52.438;16.744;2022-08-14T07:27:34;100199.94;;;21.85;89.40
48402;BME280;34201;52.438;16.744;2022-08-14T07:30:02;100201.63;;;21.86;88.93
48402;BME280;34201;52.438;16.744;2022-08-14T07:32:28;100209.66;;;21.96;89.95
48402;BME280;34201;52.438;16.744;2022-08-14T07:34:53;100201.63;;;22.31;88.34
48402;BME280;34201;52.438;16.744;2022-08-14T07:37:19;100182.66;;;22.39;87.65
48402;BME280;34201;52.438;16.744;2022-08-14T07:39:44;100170.31;;;22.39;86.67
48402;BME280;34201;52.438;16.744;2022-08-14T07:42:10;100151.00;;;22.62;85.26
48402;BME280;34201;52.438;16.744;2022-08-14T07:44:36;100156.72;;;22.78;84.81
48402;BME280;34201;52.438;16.744;2022-08-14T07:47:01;100150.75;;;23.09;83.76
48402;BME280;34201;52.438;16.744;2022-08-14T07:49:27;100120.16;;;23.17;82.24
48402;BME280;34201;52.438;16.744;2022-08-14T07:51:52;100113.63;;;23.00;81.50
48402;BME280;34201;52.438;16.744;2022-08-14T07:54:18;100100.72;;;22.86;81.19
48402;BME280;34201;52.438;16.744;2022-08-14T07:59:09;100116.91;;;22.81;81.86
48402;BME280;34201;52.438;16.744;2022-08-14T08:01:35;100132.56;;;22.94;83.04
48402;BME280;34201;52.438;16.744;2022-08-14T08:04:04;100120.84;;;23.19;81.80
48402;BME280;34201;52.438;16.744;2022-08-14T08:06:30;100111.66;;;23.35;81.62
48402;BME280;34201;52.438;16.744;2022-08-14T08:08:58;100094.28;;;23.53;80.59
48402;BME280;34201;52.438;16.744;2022-08-14T08:11:30;100072.16;;;23.75;79.49
48402;BME280;34201;52.438;16.744;2022-08-14T08:13:56;100059.66;;;23.78;77.93
48402;BME280;34201;52.438;16.744;2022-08-14T08:16:23;100043.63;;;23.90;77.10
48402;BME280;34201;52.438;16.744;2022-08-14T08:18:49;100050.34;;;24.14;77.11
48402;BME280;34201;52.438;16.744;2022-08-14T08:21:14;100031.31;;;24.30;76.59
48402;BME280;34201;52.438;16.744;2022-08-14T08:23:40;100044.19;;;24.64;76.22
48402;BME280;34201;52.438;16.744;2022-08-14T08:26:05;100021.22;;;24.84;75.08
48402;BME280;34201;52.438;16.744;2022-08-14T08:28:30;100010.91;;;24.91;74.39
48402;BME280;34201;52.438;16.744;2022-08-14T08:30:58;100008.41;;;24.89;74.25
48402;BME280;34201;52.438;16.744;2022-08-14T08:33:27;99986.94;;;25.02;73.07
48402;BME280;34201;52.438;16.744;2022-08-14T08:35:56;99988.75;;;25.11;73.18
48402;BME280;34201;52.438;16.744;2022-08-14T08:38:24;99969.56;;;25.47;72.13
48402;BME280;34201;52.438;16.744;2022-08-14T08:40:53;99956.72;;;25.52;71.57
48402;BME280;34201;52.438;16.744;2022-08-14T08:43:25;99972.00;;;25.58;72.05
48402;BME280;34201;52.438;16.744;2022-08-14T08:46:03;99948.06;;;25.78;70.79
48402;BME280;34201;52.438;16.744;2022-08-14T08:48:42;99945.78;;;25.65;70.82
48402;BME280;34201;52.438;16.744;2022-08-14T08:51:08;99917.97;;;25.79;69.66
48402;BME280;34201;52.438;16.744;2022-08-14T08:53:35;99903.91;;;25.78;69.21
48402;BME280;34201;52.438;16.744;2022-08-14T08:56:01;99898.88;;;25.75;68.76
48402;BME280;34201;52.438;16.744;2022-08-14T08:58:27;99897.88;;;26.04;68.62
48402;BME280;34201;52.438;16.744;2022-08-14T09:00:57;99898.63;;;26.15;68.51
48402;BME280;34201;52.438;16.744;2022-08-14T09:03:25;99872.47;;;26.38;67.32
48402;BME280;34201;52.438;16.744;2022-08-14T09:05:52;99870.94;;;26.53;67.18
48402;BME280;34201;52.438;16.744;2022-08-14T09:08:21;99854.81;;;26.99;66.66
48402;BME280;34201;52.438;16.744;2022-08-14T09:10:46;99850.91;;;27.28;66.04
48402;BME280;34201;52.438;16.744;2022-08-14T09:13:14;99837.91;;;27.59;65.05
48402;BME280;34201;52.438;16.744;2022-08-14T09:15:42;99813.53;;;27.97;64.01
48402;BME280;34201;52.438;16.744;2022-08-14T09:18:09;99795.28;;;28.10;63.20
48402;BME280;34201;52.438;16.744;2022-08-14T09:20:40;99777.19;;;28.06;62.03
48402;BME280;34201;52.438;16.744;2022-08-14T09:23:07;99782.41;;;28.39;61.36
48402;BME280;34201;52.438;16.744;2022-08-14T09:25:33;99781.22;;;28.58;61.25
48402;BME280;34201;52.438;16.744;2022-08-14T09:27:59;99770.91;;;28.71;60.84
48402;BME280;34201;52.438;16.744;2022-08-14T09:30:26;99783.25;;;28.95;60.31
48402;BME280;34201;52.438;16.744;2022-08-14T09:35:59;99762.34;;;29.15;59.42
48402;BME280;34201;52.438;16.744;2022-08-14T09:38:37;99743.41;;;29.10;59.46
48402;BME280;34201;52.438;16.744;2022-08-14T09:41:36;99737.94;;;29.58;58.43
48402;BME280;34201;52.438;16.744;2022-08-14T09:44:28;99733.72;;;29.64;58.37
48402;BME280;34201;52.438;16.744;2022-08-14T09:46:57;99740.25;;;29.61;58.77
48402;BME280;34201;52.438;16.744;2022-08-14T09:49:30;99729.25;;;29.79;57.98
48402;BME280;34201;52.438;16.744;2022-08-14T09:52:05;99725.72;;;28.63;60.05
48402;BME280;34201;52.438;16.744;2022-08-14T09:54:42;99746.31;;;28.52;60.51
48402;BME280;34201;52.438;16.744;2022-08-14T09:57:23;99748.47;;;28.01;62.24
48402;BME280;34201;52.438;16.744;2022-08-14T09:59:50;99761.91;;;27.66;63.13
48402;BME280;34201;52.438;16.744;2022-08-14T10:02:21;99759.41;;;27.48;63.33
48402;BME280;34201;52.438;16.744;2022-08-14T10:04:58;99763.22;;;27.46;64.12
48402;BME280;34201;52.438;16.744;2022-08-14T10:07:47;99775.34;;;27.57;64.28
48402;BME280;34201;52.438;16.744;2022-08-14T10:10:25;99758.44;;;27.49;63.27
48402;BME280;34201;52.438;16.744;2022-08-14T10:12:50;99770.88;;;27.65;63.97
48402;BME280;34201;52.438;16.744;2022-08-14T10:15:18;99764.22;;;27.78;63.91
48402;BME280;34201;52.438;16.744;2022-08-14T10:17:45;99746.44;;;27.87;63.35
48402;BME280;34201;52.438;16.744;2022-08-14T10:20:11;99743.97;;;27.93;63.24
48402;BME280;34201;52.438;16.744;2022-08-14T10:22:37;99746.97;;;28.07;62.75
48402;BME280;34201;52.438;16.744;2022-08-14T10:25:11;99761.41;;;28.21;63.42
48402;BME280;34201;52.438;16.744;2022-08-14T10:27:38;99740.28;;;28.19;62.53
48402;BME280;34201;52.438;16.744;2022-08-14T10:30:12;99723.63;;;28.42;61.67
48402;BME280;34201;52.438;16.744;2022-08-14T10:32:47;99716.09;;;28.45;61.43
48402;BME280;34201;52.438;16.744;2022-08-14T10:35:14;99722.44;;;28.44;61.84
48402;BME280;34201;52.438;16.744;2022-08-14T10:37:48;99711.09;;;28.59;61.09
48402;BME280;34201;52.438;16.744;2022-08-14T10:40:28;99691.88;;;28.80;60.47
48402;BME280;34201;52.438;16.744;2022-08-14T10:42:54;99715.69;;;28.73;60.71
48402;BME280;34201;52.438;16.744;2022-08-14T10:45:29;99727.94;;;28.82;61.39
48402;BME280;34201;52.438;16.744;2022-08-14T10:47:56;99699.25;;;28.70;60.37
48402;BME280;34201;52.438;16.744;2022-08-14T10:50:29;99724.22;;;28.52;61.79
48402;BME280;34201;52.438;16.744;2022-08-14T10:52:58;99710.94;;;28.52;61.16
48402;BME280;34201;52.438;16.744;2022-08-14T10:55:32;99724.00;;;28.22;61.87
48402;BME280;34201;52.438;16.744;2022-08-14T10:57:58;99720.03;;;28.26;61.32
48402;BME280;34201;52.438;16.744;2022-08-14T11:00:26;99716.03;;;28.30;61.63
48402;BME280;34201;52.438;16.744;2022-08-14T11:02:58;99729.19;;;28.07;62.94
48402;BME280;34201;52.438;16.744;2022-08-14T11:05:24;99707.91;;;28.24;61.67
48402;BME280;34201;52.438;16.744;2022-08-14T11:10:22;99710.75;;;28.14;61.31
48402;BME280;34201;52.438;16.744;2022-08-14T11:12:53;99709.44;;;28.10;61.65
48402;BME280;34201;52.438;16.744;2022-08-14T11:15:27;99698.59;;;28.20;61.37
48402;BME280;34201;52.438;16.744;2022-08-14T11:17:53;99703.75;;;28.21;61.53
48402;BME280;34201;52.438;16.744;2022-08-14T11:20:23;99687.69;;;28.06;61.39
48402;BME280;34201;52.438;16.744;2022-08-14T11:22:52;99687.78;;;28.29;61.18
48402;BME280;34201;52.438;16.744;2022-08-14T11:25:19;99699.22;;;29.01;60.43
48402;BME280;34201;52.438;16.744;2022-08-14T11:27:48;99696.38;;;29.02;61.14
48402;BME280;34201;52.438;16.744;2022-08-14T11:30:17;99678.81;;;28.93;60.69
48402;BME280;34201;52.438;16.744;2022-08-14T11:32:45;99665.38;;;28.55;61.41
48402;BME280;34201;52.438;16.744;2022-08-14T11:35:20;99684.81;;;28.64;61.54
48402;BME280;34201;52.438;16.744;2022-08-14T11:37:55;99676.88;;;28.56;61.63
48402;BME280;34201;52.438;16.744;2022-08-14T11:40:25;99674.06;;;28.49;62.00
48402;BME280;34201;52.438;16.744;2022-08-14T11:42:52;99656.78;;;28.53;61.39
48402;BME280;34201;52.438;16.744;2022-08-14T11:45:20;99662.38;;;28.58;61.29
48402;BME280;34201;52.438;16.744;2022-08-14T11:47:45;99677.09;;;28.46;62.06
48402;BME280;34201;52.438;16.744;2022-08-14T11:50:17;99671.22;;;28.50;61.54
48402;BME280;34201;52.438;16.744;2022-08-14T11:52:44;99690.94;;;28.96;61.41
48402;BME280;34201;52.438;16.744;2022-08-14T11:55:11;99673.34;;;28.63;61.90
48402;BME280;34201;52.438;16.744;2022-08-14T11:57:38;99680.13;;;28.97;61.72
48402;BME280;34201;52.438;16.744;2022-08-14T12:00:06;99667.47;;;28.76;61.70
48402;BME280;34201;52.438;16.744;2022-08-14T12:02:33;99694.41;;;28.73;62.61
48402;BME280;34201;52.438;16.744;2022-08-14T12:04:59;99677.88;;;28.55;62.66
48402;BME280;34201;52.438;16.744;2022-08-14T12:07:24;99680.59;;;28.38;62.93
48402;BME280;34201;52.438;16.744;2022-08-14T12:09:55;99731.28;;;28.28;65.19
48402;BME280;34201;52.438;16.744;2022-08-14T12:12:22;99773.34;;;28.81;66.17
48402;BME280;34201;52.438;16.744;2022-08-14T12:17:30;99718.94;;;29.15;64.30
48402;BME280;34201;52.438;16.744;2022-08-14T12:20:00;99699.13;;;28.63;64.90
48402;BME280;34201;52.438;16.744;2022-08-14T12:25:01;99725.19;;;27.87;67.18
48402;BME280;34201;52.438;16.744;2022-08-14T12:27:37;99725.88;;;27.80;67.25
48402;BME280;34201;52.438;16.744;2022-08-14T12:30:04;99734.19;;;27.77;67.67
48402;BME280;34201;52.438;16.744;2022-08-14T12:32:40;99721.56;;;27.88;67.16
48402;BME280;34201;52.438;16.744;2022-08-14T12:35:07;99737.69;;;27.78;67.66
48402;BME280;34201;52.438;16.744;2022-08-14T12:37:34;99734.19;;;27.86;67.78
48402;BME280;34201;52.438;16.744;2022-08-14T12:40:11;99732.84;;;27.90;67.49
48402;BME280;34201;52.438;16.744;2022-08-14T12:42:38;99723.41;;;27.79;67.99
48402;BME280;34201;52.438;16.744;2022-08-14T12:45:05;99711.94;;;27.87;67.58
48402;BME280;34201;52.438;16.744;2022-08-14T12:47:31;99688.88;;;27.79;66.37
48402;BME280;34201;52.438;16.744;2022-08-14T12:49:56;99693.16;;;27.80;66.70
48402;BME280;34201;52.438;16.744;2022-08-14T12:52:36;99693.69;;;27.51;67.57
48402;BME280;34201;52.438;16.744;2022-08-14T12:55:07;99766.00;;;27.28;70.43
48402;BME280;34201;52.438;16.744;2022-08-14T12:57:43;99810.84;;;26.96;73.59
48402;BME280;34201;52.438;16.744;2022-08-14T13:00:23;99830.06;;;26.64;74.77
48402;BME280;34201;52.438;16.744;2022-08-14T13:02:51;99834.13;;;26.50;76.30